Time;durP1;ratioP1;P1;durP2;ratioP2;P2;SDS_P1;SDS_P2;PMS_P1;PMS_P2;Temp;Humidity;BMP_temperature;BMP_pressure;BME280_temperature;BME280_humidity;BME280_pressure;Samples;Min_cycle;Max_cycle;Signal;HPM_P1;HPM_P2
2022/07/21 00:01:21;;;;;;;4.80;3.75;;;;;;;20.38;51.74;95156.03;5116808;28;20227;-68
2022/07/21 00:03:49;;;;;;;3.95;3.45;;;;;;;20.36;51.13;95162.03;5116290;28;20194;-68
2022/07/21 00:06:16;;;;;;;5.32;3.97;;;;;;;20.38;51.79;95156.03;5114979;28;20279;-68
2022/07/21 00:08:43;;;;;;;4.30;3.92;;;;;;;20.34;51.63;95153.25;5115568;28;20314;-68
2022/07/21 00:11:11;;;;;;;3.97;3.58;;;;;;;20.29;51.72;95159.28;5116054;28;20190;-68
2022/07/21 00:13:38;;;;;;;5.65;4.28;;;;;;;20.21;51.82;95168.97;5115411;28;20210;-69
2022/07/21 00:16:06;;;;;;;3.80;3.50;;;;;;;20.14;51.76;95164.22;5115575;28;20204;-69
2022/07/21 00:18:33;;;;;;;4.25;3.95;;;;;;;20.13;51.71;95164.66;5116190;28;20262;-68
2022/07/21 00:21:01;;;;;;;3.80;3.50;;;;;;;20.11;51.71;95167.06;5115008;28;20202;-68
2022/07/21 00:23:29;;;;;;;5.22;3.53;;;;;;;20.09;51.96;95170.28;5115900;28;20278;-68
2022/07/21 00:25:55;;;;;;;3.70;3.40;;;;;;;20.03;51.56;95166.31;5114950;28;20287;-68
2022/07/21 00:28:24;;;;;;;3.90;3.50;;;;;;;19.99;52.02;95168.34;5115066;28;20199;-68
2022/07/21 00:30:51;;;;;;;3.65;3.33;;;;;;;20.01;51.98;95170.72;5115500;28;20192;-68
2022/07/21 00:33:18;;;;;;;4.35;3.53;;;;;;;20.00;52.29;95167.13;5114672;28;20198;-68
2022/07/21 00:35:45;;;;;;;3.92;3.42;;;;;;;20.00;51.79;95166.34;5114419;28;20660;-68
2022/07/21 00:38:13;;;;;;;3.90;3.38;;;;;;;19.99;51.97;95167.56;5097630;28;20215;-68
2022/07/21 00:40:40;;;;;;;3.75;3.40;;;;;;;19.94;52.68;95166.00;5115408;28;20303;-68
2022/07/21 00:43:07;;;;;;;3.83;3.53;;;;;;;19.94;52.60;95166.00;5115649;28;20195;-68
2022/07/21 00:45:36;;;;;;;3.90;3.60;;;;;;;19.92;52.27;95165.59;5114770;28;20286;-68
2022/07/21 00:48:03;;;;;;;3.95;3.58;;;;;;;19.83;52.35;95163.28;5115733;28;20218;-68
2022/07/21 00:50:30;;;;;;;3.60;3.30;;;;;;;19.82;52.12;95164.47;5115673;28;20215;-69
2022/07/21 00:52:56;;;;;;;3.40;3.10;;;;;;;19.81;52.35;95164.88;5115367;28;20600;-69
2022/07/21 00:55:24;;;;;;;5.90;3.63;;;;;;;19.79;52.11;95159.72;5114240;28;20567;-69
2022/07/21 00:57:51;;;;;;;3.75;3.25;;;;;;;19.80;52.43;95169.69;5115053;28;20203;-68
2022/07/21 01:00:20;;;;;;;3.50;3.20;;;;;;;19.82;52.41;95167.25;5114938;28;20288;-68
2022/07/21 01:02:49;;;;;;;3.42;3.13;;;;;;;19.77;52.24;95161.31;5115533;28;20267;-68
2022/07/21 01:05:17;;;;;;;3.20;3.00;;;;;;;19.68;52.23;95156.16;5115893;28;20275;-68
2022/07/21 01:07:45;;;;;;;4.13;3.28;;;;;;;19.59;52.58;95156.59;5115445;28;20237;-69
2022/07/21 01:10:12;;;;;;;3.50;3.20;;;;;;;19.56;53.00;95151.81;5114349;28;20298;-69
2022/07/21 01:12:40;;;;;;;4.43;3.25;;;;;;;19.54;52.93;95156.25;5114390;28;20191;-69
2022/07/21 01:15:08;;;;;;;3.45;3.15;;;;;;;19.50;53.24;95153.47;5114860;28;20200;-68
2022/07/21 01:17:35;;;;;;;3.95;3.33;;;;;;;19.46;53.16;95149.88;5114286;28;20310;-68
2022/07/21 01:20:06;;;;;;;3.83;3.15;;;;;;;19.41;52.79;95153.13;5114365;28;20298;-68
2022/07/21 01:22:35;;;;;;;4.53;3.22;;;;;;;19.35;52.90;95147.13;5115097;28;20205;-68
2022/07/21 01:25:02;;;;;;;4.63;3.55;;;;;;;19.33;53.07;95140.38;5115041;28;20184;-67
2022/07/21 01:27:30;;;;;;;4.40;3.50;;;;;;;19.32;53.13;95138.78;5115090;28;20191;-68
2022/07/21 01:29:57;;;;;;;3.88;3.25;;;;;;;19.36;53.11;95142.38;5114314;28;20231;-68
2022/07/21 01:32:24;;;;;;;3.95;3.55;;;;;;;19.35;53.03;95147.13;5114908;28;20299;-68
2022/07/21 01:34:51;;;;;;;3.83;3.38;;;;;;;19.35;53.43;95144.34;5113934;28;20506;-68
2022/07/21 01:37:22;;;;;;;3.80;3.50;;;;;;;19.33;53.26;95143.19;5116947;28;20230;-68
2022/07/21 01:42:34;;;;;;;3.40;3.10;;;;;;;19.35;53.19;95137.94;5118775;28;20661;-68
2022/07/21 01:45:02;;;;;;;4.72;3.30;;;;;;;19.35;53.41;95138.75;5118020;28;20598;-68
2022/07/21 01:47:29;;;;;;;4.80;3.20;;;;;;;19.32;53.58;95136.78;5117756;28;20234;-68
2022/07/21 01:49:56;;;;;;;3.47;3.17;;;;;;;19.26;53.73;95138.41;5118166;28;20195;-68
2022/07/21 01:52:23;;;;;;;3.30;3.00;;;;;;;19.20;53.94;95145.63;5118111;28;20239;-68
2022/07/21 01:54:51;;;;;;;4.20;3.60;;;;;;;19.18;53.81;95146.03;5119032;28;20243;-68
2022/07/21 01:57:18;;;;;;;4.75;3.22;;;;;;;19.19;53.87;95141.25;5117722;28;20218;-69
2022/07/21 01:59:45;;;;;;;4.40;3.53;;;;;;;19.20;53.93;95135.22;5118166;28;20191;-71
2022/07/21 02:02:12;;;;;;;3.85;3.50;;;;;;;19.21;54.43;95131.25;5118294;28;20702;-68
2022/07/21 02:04:39;;;;;;;4.88;3.35;;;;;;;19.19;54.12;95142.03;5117839;28;20294;-68
2022/07/21 02:07:06;;;;;;;3.65;3.40;;;;;;;19.19;54.25;95136.44;5117402;28;20678;-68
2022/07/21 02:09:33;;;;;;;3.70;3.40;;;;;;;19.20;54.41;95126.06;5118651;28;20271;-68
2022/07/21 02:12:01;;;;;;;4.10;3.35;;;;;;;19.20;54.07;95138.03;5117097;28;20203;-68
2022/07/21 02:14:28;;;;;;;4.13;3.42;;;;;;;19.18;54.26;95142.47;5118658;28;20207;-68
2022/07/21 02:16:55;;;;;;;4.30;3.90;;;;;;;19.13;54.37;95146.44;5118145;28;20300;-68
2022/07/21 02:19:22;;;;;;;8.00;4.10;;;;;;;19.07;54.36;95138.91;5118021;28;20198;-68
2022/07/21 02:21:49;;;;;;;8.43;4.38;;;;;;;19.03;54.58;95133.34;5117214;28;20200;-68
2022/07/21 02:24:16;;;;;;;4.88;3.65;;;;;;;19.01;54.43;95141.31;5117922;28;20219;-68
2022/07/21 02:26:43;;;;;;;6.45;3.97;;;;;;;19.00;54.46;95134.16;5118130;28;20274;-68
2022/07/21 02:29:11;;;;;;;6.22;3.78;;;;;;;18.98;54.81;95134.53;5117962;28;20191;-68
2022/07/21 02:31:38;;;;;;;5.50;3.85;;;;;;;18.96;54.56;95127.78;5118125;28;20270;-68
2022/07/21 02:34:06;;;;;;;5.85;3.80;;;;;;;18.93;54.54;95132.19;5118102;28;20256;-68
2022/07/21 02:36:33;;;;;;;7.20;3.95;;;;;;;18.91;54.59;95139.34;5117958;28;20215;-68
2022/07/21 02:39:00;;;;;;;5.05;4.07;;;;;;;18.90;54.79;95135.78;5117042;28;20290;-68
2022/07/21 02:41:27;;;;;;;4.28;3.88;;;;;;;18.89;54.52;95133.41;5117775;28;20188;-68
2022/07/21 02:43:53;;;;;;;5.43;3.88;;;;;;;18.87;54.75;95138.59;5117432;28;20206;-68
2022/07/21 02:46:22;;;;;;;6.72;3.90;;;;;;;18.82;55.08;95130.63;5117788;28;20181;-68
2022/07/21 02:48:48;;;;;;;5.18;3.97;;;;;;;18.81;55.51;95129.84;5116775;28;20206;-68
2022/07/21 02:51:15;;;;;;;4.90;4.28;;;;;;;18.80;55.22;95127.44;5118111;28;20196;-68
2022/07/21 02:53:42;;;;;;;6.57;4.47;;;;;;;18.78;55.02;95130.66;5116391;28;20235;-68
2022/07/21 02:56:09;;;;;;;6.00;4.22;;;;;;;18.81;55.04;95132.63;5116263;28;20196;-68
2022/07/21 02:58:36;;;;;;;5.18;3.97;;;;;;;18.83;55.12;95132.22;5099659;28;20199;-68
2022/07/21 03:01:05;;;;;;;5.95;3.80;;;;;;;18.82;54.88;95131.41;5117276;28;20525;-68
2022/07/21 03:03:35;;;;;;;4.40;4.00;;;;;;;18.81;54.76;95129.84;5116904;28;20200;-68
2022/07/21 03:06:03;;;;;;;5.00;3.80;;;;;;;18.77;55.30;95131.81;5116988;28;20206;-68
2022/07/21 03:08:30;;;;;;;5.75;3.80;;;;;;;18.75;54.82;95129.44;5116566;28;20188;-68
2022/07/21 03:10:57;;;;;;;4.28;3.95;;;;;;;18.75;54.78;95132.25;5116410;28;20204;-68
2022/07/21 03:13:24;;;;;;;5.43;3.90;;;;;;;18.75;55.04;95134.25;5116954;28;20531;-68
2022/07/21 03:15:51;;;;;;;5.63;3.97;;;;;;;18.74;54.93;95132.66;5116488;28;20195;-68
2022/07/21 03:18:18;;;;;;;5.72;3.95;;;;;;;18.72;54.82;95138.63;5116599;28;20215;-68
2022/07/21 03:20:46;;;;;;;5.80;3.95;;;;;;;18.71;55.03;95134.25;5116373;28;20209;-68
2022/07/21 03:23:13;;;;;;;5.80;3.58;;;;;;;18.70;54.75;95137.41;5116753;28;20184;-68
2022/07/21 03:25:40;;;;;;;5.80;4.28;;;;;;;18.69;54.67;95139.41;5117154;28;20200;-68
2022/07/21 03:28:07;;;;;;;5.20;4.03;;;;;;;18.65;54.65;95141.41;5116577;28;20172;-68
2022/07/21 03:30:34;;;;;;;6.90;3.80;;;;;;;18.61;55.26;95140.63;5116946;28;20192;-68
2022/07/21 03:33:02;;;;;;;5.28;4.03;;;;;;;18.61;55.03;95132.25;5115842;28;20184;-68
2022/07/21 03:35:29;;;;;;;6.72;3.85;;;;;;;18.63;54.96;95138.25;5116525;28;20574;-68
2022/07/21 03:37:59;;;;;;;5.10;3.83;;;;;;;18.64;54.85;95139.81;5115714;28;20219;-68
2022/07/21 03:40:28;;;;;;;6.25;4.03;;;;;;;18.64;54.78;95139.81;5115868;28;20214;-68
2022/07/21 03:42:57;;;;;;;5.15;4.13;;;;;;;18.65;55.03;95141.41;5115724;28;20202;-68
2022/07/21 03:45:25;;;;;;;5.78;4.10;;;;;;;18.61;55.27;95143.41;5116228;28;20272;-68
2022/07/21 03:47:52;;;;;;;5.00;3.67;;;;;;;18.58;54.68;95147.00;5116274;28;20626;-68
2022/07/21 03:50:19;;;;;;;5.00;3.92;;;;;;;18.56;54.63;95145.84;5115768;28;20203;-68
2022/07/21 03:52:46;;;;;;;5.55;4.15;;;;;;;18.55;54.88;95147.03;5115700;28;20210;-68
2022/07/21 03:55:17;;;;;;;6.30;4.15;;;;;;;18.58;54.90;95151.81;5115357;28;20223;-68
2022/07/21 03:57:47;;;;;;;7.60;5.15;;;;;;;18.57;55.26;95155.81;5116295;28;20269;-67
2022/07/21 04:00:16;;;;;;;11.98;5.28;;;;;;;18.57;55.41;95156.59;5115414;28;20207;-68
2022/07/21 04:02:43;;;;;;;10.48;5.70;;;;;;;18.58;55.36;95154.59;5116112;28;20176;-68
2022/07/21 04:05:11;;;;;;;10.95;7.15;;;;;;;18.59;55.18;95151.44;5115005;28;20210;-68
2022/07/21 04:07:39;;;;;;;15.98;7.28;;;;;;;18.59;55.37;95151.44;5115056;28;20628;-72
2022/07/21 04:10:07;;;;;;;9.30;6.55;;;;;;;18.60;54.84;95152.22;5116390;28;20184;-72
2022/07/21 04:12:35;;;;;;;10.73;6.40;;;;;;;18.64;54.99;95159.38;5115177;28;20192;-72
2022/07/21 04:15:02;;;;;;;6.97;5.00;;;;;;;18.65;54.30;95155.38;5114859;28;20277;-72
2022/07/21 04:17:29;;;;;;;5.97;4.70;;;;;;;18.66;54.01;95159.75;5115933;28;20218;-72
2022/07/21 04:19:55;;;;;;;6.82;4.85;;;;;;;18.67;54.18;95144.63;5116306;28;20195;-72
2022/07/21 04:22:22;;;;;;;7.40;4.45;;;;;;;18.71;53.98;95158.59;5115141;28;20196;-72
2022/07/21 04:24:52;;;;;;;5.40;4.28;;;;;;;18.76;54.25;95149.78;5115777;28;20172;-71
2022/07/21 04:27:19;;;;;;;6.05;3.53;;;;;;;18.82;53.42;95161.38;5115552;28;20600;-71
2022/07/21 04:29:47;;;;;;;4.80;3.72;;;;;;;18.86;53.31;95160.16;5115891;28;20603;-72
2022/07/21 04:32:14;;;;;;;4.82;3.47;;;;;;;18.88;52.91;95156.94;5115760;28;20564;-71
2022/07/21 04:34:41;;;;;;;6.00;4.13;;;;;;;18.91;52.85;95156.91;5114645;28;20188;-71
2022/07/21 04:37:07;;;;;;;4.10;3.70;;;;;;;18.93;52.38;95157.31;5115930;28;20226;-72
2022/07/21 04:39:34;;;;;;;6.20;3.60;;;;;;;18.96;52.75;95162.13;5115677;28;20194;-72
2022/07/21 04:42:01;;;;;;;4.40;3.97;;;;;;;18.98;52.78;95159.69;5115857;28;20188;-72
2022/07/21 04:44:28;;;;;;;6.00;4.93;;;;;;;19.00;52.92;95167.69;5114671;28;20638;-72
2022/07/21 04:46:56;;;;;;;5.65;5.18;;;;;;;18.99;52.80;95158.50;5115546;28;20176;-72
2022/07/21 04:49:23;;;;;;;5.18;4.53;;;;;;;18.99;53.38;95166.91;5114855;28;20532;-72
2022/07/21 04:51:50;;;;;;;4.50;4.10;;;;;;;19.00;53.15;95164.91;5115411;28;20188;-72
2022/07/21 04:54:17;;;;;;;4.10;3.70;;;;;;;19.02;52.98;95170.84;5115363;28;20318;-72
2022/07/21 04:56:45;;;;;;;3.65;3.35;;;;;;;19.07;52.01;95178.06;5114903;28;20203;-72
2022/07/21 04:59:11;;;;;;;5.35;3.42;;;;;;;19.11;51.82;95176.03;5114780;28;20253;-72
2022/07/21 05:01:44;;;;;;;3.70;3.25;;;;;;;19.14;51.68;95178.81;5115264;28;20192;-72
2022/07/21 05:04:14;;;;;;;4.20;3.75;;;;;;;19.18;51.97;95174.00;5115605;28;20195;-72
2022/07/21 05:06:41;;;;;;;5.80;3.75;;;;;;;19.18;51.72;95176.81;5115361;28;20615;-70
2022/07/21 05:09:09;;;;;;;4.38;3.92;;;;;;;19.20;52.18;95176.38;5115030;28;20192;-72
2022/07/21 05:11:36;;;;;;;5.03;4.35;;;;;;;19.21;52.48;95170.41;5115870;28;20603;-72
2022/07/21 05:14:04;;;;;;;5.10;3.70;;;;;;;19.23;52.83;95181.16;5119149;28;20534;-72
2022/07/21 05:16:31;;;;;;;4.50;4.07;;;;;;;19.26;53.60;95173.97;5119601;28;20183;-72
2022/07/21 05:18:58;;;;;;;5.75;3.40;;;;;;;19.24;51.99;95171.56;5119037;28;20204;-72
2022/07/21 05:21:26;;;;;;;4.63;3.90;;;;;;;19.24;51.88;95168.78;5119491;28;20196;-73
2022/07/21 05:23:53;;;;;;;5.32;3.20;;;;;;;19.23;51.57;95175.56;5120972;28;20188;-73
2022/07/21 05:26:20;;;;;;;4.13;3.70;;;;;;;19.20;52.60;95171.56;5119062;28;20203;-76
2022/07/21 05:28:47;;;;;;;4.90;3.30;;;;;;;19.23;52.58;95169.97;5118483;28;20200;-73
2022/07/21 05:31:14;;;;;;;5.82;3.60;;;;;;;19.23;51.90;95172.78;5119278;28;20211;-74
2022/07/21 05:33:41;;;;;;;4.60;3.45;;;;;;;19.27;52.20;95172.75;5118293;28;20184;-74
2022/07/21 05:36:08;;;;;;;3.92;3.42;;;;;;;19.32;52.86;95178.75;5118313;28;20210;-74
2022/07/21 05:38:36;;;;;;;3.85;3.47;;;;;;;19.39;52.44;95175.91;5117893;28;20220;-75
2022/07/21 05:41:03;;;;;;;4.13;3.72;;;;;;;19.48;51.61;95178.25;5117809;28;20188;-75
2022/07/21 05:43:30;;;;;;;7.82;3.88;;;;;;;19.56;51.00;95181.78;5118143;28;20200;-74
2022/07/21 05:45:58;;;;;;;4.32;3.50;;;;;;;19.60;51.58;95176.97;5117796;28;20709;-74
2022/07/21 05:48:25;;;;;;;4.82;3.80;;;;;;;19.58;52.24;95169.00;5118292;28;20256;-73
2022/07/21 05:50:51;;;;;;;5.15;3.88;;;;;;;19.58;52.13;95176.59;5117972;28;20218;-75
2022/07/21 05:53:18;;;;;;;5.05;3.40;;;;;;;19.56;52.66;95176.19;5117862;28;20187;-75
2022/07/21 05:55:47;;;;;;;3.80;3.30;;;;;;;19.56;52.29;95174.19;5118799;28;20192;-75
2022/07/21 05:58:14;;;;;;;3.65;3.35;;;;;;;19.59;51.90;95181.78;5117510;28;20216;-74
2022/07/21 06:00:40;;;;;;;3.70;3.42;;;;;;;19.63;52.32;95176.19;5117750;28;20199;-74
2022/07/21 06:03:07;;;;;;;5.85;3.50;;;;;;;19.69;52.19;95174.56;5118577;28;20204;-75
2022/07/21 06:05:34;;;;;;;5.10;3.80;;;;;;;19.74;52.39;95171.31;5118709;28;20220;-74
2022/07/21 06:08:01;;;;;;;3.90;3.38;;;;;;;19.78;52.18;95162.91;5117702;28;20199;-75
2022/07/21 06:10:28;;;;;;;4.68;3.70;;;;;;;19.84;52.07;95164.06;5118300;28;20191;-75
2022/07/21 06:12:57;;;;;;;3.55;3.25;;;;;;;19.90;52.10;95166.03;5118326;28;20201;-74
2022/07/21 06:15:24;;;;;;;5.03;3.90;;;;;;;19.95;51.93;95162.00;5118585;28;20202;-75
2022/07/21 06:17:51;;;;;;;4.00;3.70;;;;;;;20.00;51.97;95166.34;5118284;28;20216;-75
2022/07/21 06:20:18;;;;;;;4.15;3.70;;;;;;;20.06;51.52;95164.69;5117427;28;20224;-75
2022/07/21 06:22:44;;;;;;;4.43;3.80;;;;;;;20.11;51.78;95170.66;5116577;28;20200;-75
2022/07/21 06:25:11;;;;;;;4.63;3.90;;;;;;;20.17;51.77;95169.00;5116919;28;20619;-74
2022/07/21 06:27:38;;;;;;;5.45;3.72;;;;;;;20.26;51.56;95157.34;5117822;28;20179;-75
2022/07/21 06:30:08;;;;;;;5.10;4.18;;;;;;;20.34;51.28;95160.88;5117761;28;20505;-74
2022/07/21 06:32:34;;;;;;;4.70;3.83;;;;;;;20.41;51.12;95158.81;5118183;28;20183;-74
2022/07/21 06:35:01;;;;;;;5.20;3.47;;;;;;;20.49;51.19;95155.94;5117350;28;20203;-75
2022/07/21 06:37:28;;;;;;;4.82;4.00;;;;;;;20.57;51.59;95152.66;5118315;28;20200;-74
2022/07/21 06:39:55;;;;;;;6.75;3.97;;;;;;;20.63;51.36;95148.22;5117931;28;20200;-74
2022/07/21 06:42:22;;;;;;;5.45;3.53;;;;;;;20.71;51.93;95145.31;5117364;28;20192;-74
2022/07/21 06:44:49;;;;;;;5.25;3.60;;;;;;;20.77;51.91;95141.66;5117791;28;20180;-74
2022/07/21 06:47:17;;;;;;;4.22;3.35;;;;;;;20.86;53.35;95146.75;5117512;28;20192;-74
2022/07/21 06:49:44;;;;;;;4.63;3.28;;;;;;;20.95;53.80;95149.84;5117331;28;20195;-75
2022/07/21 06:52:12;;;;;;;4.70;4.30;;;;;;;20.96;52.78;95142.25;5116896;28;20191;-75
2022/07/21 06:54:39;;;;;;;6.28;4.18;;;;;;;20.99;52.62;95147.00;5117728;28;20246;-74
2022/07/21 06:57:06;;;;;;;6.53;3.97;;;;;;;21.01;52.37;95136.16;5117652;28;20690;-75
2022/07/21 06:59:33;;;;;;;4.43;3.60;;;;;;;20.99;52.18;95136.59;5116882;28;20219;-75
2022/07/21 07:02:00;;;;;;;5.45;3.40;;;;;;;21.00;53.13;95143.00;5117464;28;20180;-74
2022/07/21 07:04:28;;;;;;;5.70;4.10;;;;;;;21.13;53.84;95144.00;5116862;28;20585;-74
2022/07/21 07:06:55;;;;;;;6.18;3.58;;;;;;;21.26;53.48;95144.28;5099652;28;20237;-74
2022/07/21 07:09:22;;;;;;;3.58;3.28;;;;;;;21.37;53.12;95142.16;5117748;28;20187;-74
2022/07/21 07:11:51;;;;;;;4.65;3.80;;;;;;;21.50;53.10;95140.38;5117366;28;20196;-75
2022/07/21 07:14:18;;;;;;;5.07;3.65;;;;;;;21.61;52.81;95145.84;5117381;28;20184;-76
2022/07/21 07:16:45;;;;;;;4.85;3.40;;;;;;;21.68;52.75;95139.31;5116714;28;20202;-71
2022/07/21 07:19:12;;;;;;;7.45;4.03;;;;;;;21.65;51.89;95134.56;5116073;28;20705;-75
2022/07/21 07:21:40;;;;;;;6.22;4.18;;;;;;;21.65;52.98;95142.97;5117899;28;20196;-75
2022/07/21 07:24:07;;;;;;;4.00;3.60;;;;;;;21.66;51.65;95133.34;5117674;28;20179;-75
2022/07/21 07:26:34;;;;;;;5.50;3.50;;;;;;;21.67;52.78;95134.91;5116870;28;20176;-75
2022/07/21 07:29:01;;;;;;;4.95;4.18;;;;;;;21.67;51.07;95130.09;5115977;28;20200;-75
2022/07/21 07:31:27;;;;;;;9.82;4.18;;;;;;;21.67;50.84;95135.69;5116672;28;20192;-75
2022/07/21 07:33:56;;;;;;;4.90;3.70;;;;;;;21.70;51.68;95134.06;5116107;28;20204;-76
2022/07/21 07:36:23;;;;;;;8.45;4.50;;;;;;;21.78;51.07;95127.13;5116699;28;20231;-76
2022/07/21 07:38:52;;;;;;;4.35;3.70;;;;;;;21.80;51.92;95128.28;5115759;28;20227;-76
2022/07/21 07:41:20;;;;;;;4.55;4.15;;;;;;;21.90;50.98;95132.16;5115849;28;20196;-76
2022/07/21 07:43:47;;;;;;;6.57;4.25;;;;;;;21.91;51.17;95121.72;5115633;28;20196;-76
2022/07/21 07:46:14;;;;;;;4.03;3.72;;;;;;;21.98;50.61;95113.19;5116766;28;20510;-76
2022/07/21 07:48:42;;;;;;;4.65;4.03;;;;;;;22.07;49.49;95116.22;5115679;28;20517;-76
2022/07/21 07:51:09;;;;;;;4.75;3.83;;;;;;;22.14;49.01;95118.97;5115548;28;20199;-76
2022/07/21 07:53:36;;;;;;;4.10;3.80;;;;;;;22.19;48.75;95114.88;5115363;28;20228;-76
2022/07/21 07:56:05;;;;;;;3.40;3.10;;;;;;;22.27;48.87;95107.91;5116462;28;20187;-76
2022/07/21 07:58:32;;;;;;;4.38;3.88;;;;;;;22.34;48.56;95110.59;5116083;28;20678;-76
2022/07/21 08:00:59;;;;;;;4.30;3.90;;;;;;;22.34;49.03;95111.41;5115473;28;20207;-76
2022/07/21 08:03:27;;;;;;;4.88;4.32;;;;;;;22.41;48.61;95098.44;5115405;28;20209;-76
2022/07/21 08:05:55;;;;;;;4.10;3.78;;;;;;;22.47;47.67;95105.13;5116155;28;20639;-76
2022/07/21 08:08:22;;;;;;;3.97;3.15;;;;;;;22.54;47.16;95096.56;5115344;28;20526;-75
2022/07/21 08:10:49;;;;;;;3.53;2.90;;;;;;;22.61;47.68;95096.44;5115290;28;20192;-75
2022/07/21 08:13:18;;;;;;;2.97;2.75;;;;;;;22.65;47.29;95085.13;5115821;28;20196;-75
2022/07/21 08:15:47;;;;;;;4.60;3.30;;;;;;;22.68;46.39;95090.69;5115614;28;20192;-75
2022/07/21 08:18:14;;;;;;;3.30;3.00;;;;;;;22.78;45.33;95091.72;5114873;28;20285;-75
2022/07/21 08:20:42;;;;;;;4.05;3.10;;;;;;;22.87;45.07;95088.31;5115230;28;20187;-75
2022/07/21 08:23:15;;;;;;;4.85;3.20;;;;;;;23.02;44.16;95081.19;5115742;28;20615;-75
2022/07/21 08:25:42;;;;;;;3.95;3.00;;;;;;;23.13;44.53;95087.41;5116255;28;20176;-75
2022/07/21 08:28:09;;;;;;;3.50;3.25;;;;;;;23.20;45.03;95086.44;5115819;28;20266;-75
2022/07/21 08:30:38;;;;;;;3.95;3.20;;;;;;;23.25;43.91;95081.13;5115081;28;20195;-75
2022/07/21 08:33:05;;;;;;;4.00;3.55;;;;;;;23.29;44.72;95084.63;5114905;28;20202;-76
2022/07/21 08:35:33;;;;;;;3.53;3.22;;;;;;;23.38;44.32;95075.59;5114704;28;20290;-75
2022/07/21 08:38:01;;;;;;;4.13;2.85;;;;;;;23.48;44.27;95077.38;5114457;28;20687;-75
2022/07/21 08:40:30;;;;;;;4.88;3.90;;;;;;;23.63;44.34;95072.22;5114968;28;20191;-75
2022/07/21 08:42:57;;;;;;;3.15;2.92;;;;;;;23.77;42.60;95076.75;5097876;28;20199;-75
2022/07/21 08:45:27;;;;;;;5.25;3.17;;;;;;;23.81;43.02;95066.19;5114967;28;20195;-75
2022/07/21 08:47:56;;;;;;;3.70;3.35;;;;;;;23.91;43.11;95064.34;5115865;28;20535;-75
2022/07/21 08:50:24;;;;;;;3.70;3.20;;;;;;;23.98;43.37;95056.50;5115632;28;20195;-75
2022/07/21 08:52:51;;;;;;;7.80;3.63;;;;;;;24.02;44.60;95062.84;5114289;28;20188;-75
2022/07/21 08:55:18;;;;;;;5.18;3.97;;;;;;;24.15;43.19;95062.16;5114298;28;20254;-75
2022/07/21 08:57:45;;;;;;;3.58;3.25;;;;;;;24.31;41.95;95053.66;5115756;28;20190;-75
2022/07/21 09:00:12;;;;;;;3.60;3.30;;;;;;;24.38;42.10;95061.16;5115198;28;20217;-76
2022/07/21 09:02:39;;;;;;;8.50;7.70;;;;;;;24.40;42.15;95061.50;5115261;28;20195;-75
2022/07/21 09:05:10;;;;;;;4.63;3.60;;;;;;;24.52;41.61;95055.16;5114526;28;20187;-75
2022/07/21 09:07:50;;;;;;;3.97;3.50;;;;;;;24.69;40.33;95053.06;5115355;28;20203;-75
2022/07/21 09:10:22;;;;;;;3.53;3.22;;;;;;;24.84;41.00;95053.47;5114719;28;20187;-75
2022/07/21 09:12:51;;;;;;;3.67;3.38;;;;;;;24.91;40.97;95048.44;5114248;28;20264;-75
2022/07/21 09:15:19;;;;;;;3.78;3.47;;;;;;;25.03;41.37;95046.88;5115122;28;20199;-75
2022/07/21 09:17:46;;;;;;;3.92;3.30;;;;;;;25.13;40.79;95037.34;5115112;28;20591;-75
2022/07/21 09:20:24;;;;;;;6.57;4.00;;;;;;;25.20;41.23;95042.75;5115254;28;20200;-75
2022/07/21 09:23:05;;;;;;;4.75;3.72;;;;;;;25.27;42.23;95047.38;5114453;28;20614;-75
2022/07/21 09:25:37;;;;;;;3.95;3.55;;;;;;;25.34;42.14;95046.38;5114338;28;20191;-75
2022/07/21 09:28:12;;;;;;;4.18;3.20;;;;;;;25.44;41.51;95040.41;5115318;28;20195;-75
2022/07/21 09:31:05;;;;;;;4.15;3.42;;;;;;;25.63;38.94;95035.78;5114553;28;20210;-75
2022/07/21 09:33:34;;;;;;;3.45;3.15;;;;;;;25.65;40.62;95038.94;5078659;28;20203;-75
2022/07/21 09:36:05;;;;;;;3.70;3.40;;;;;;;25.64;40.72;95037.38;5115264;28;20219;-74
2022/07/21 09:38:34;;;;;;;5.18;4.20;;;;;;;25.87;38.72;95029.81;5114337;28;20203;-75
2022/07/21 09:41:07;;;;;;;4.35;3.38;;;;;;;25.92;38.78;95029.22;5114356;28;20199;-75
2022/07/21 09:43:41;;;;;;;4.38;3.33;;;;;;;26.04;39.24;95027.66;5115170;28;20180;-75
2022/07/21 09:46:10;;;;;;;4.13;3.17;;;;;;;26.19;37.46;95028.75;5114740;28;20222;-75
2022/07/21 09:48:40;;;;;;;4.43;4.03;;;;;;;26.16;39.17;95027.59;5115317;28;20184;-75
2022/07/21 09:51:22;;;;;;;4.20;3.83;;;;;;;26.29;37.27;95035.25;5113827;28;20286;-74
2022/07/21 09:53:52;;;;;;;4.15;3.55;;;;;;;26.27;38.17;95032.09;5114353;28;20329;-74
2022/07/21 09:56:19;;;;;;;3.60;3.30;;;;;;;26.32;37.89;95025.84;5114185;28;20207;-74
2022/07/21 09:58:47;;;;;;;4.78;4.38;;;;;;;26.46;37.62;95031.06;5117304;28;20269;-75
2022/07/21 10:01:15;;;;;;;4.70;4.20;;;;;;;26.55;37.67;95030.34;5117717;28;20188;-75
2022/07/21 10:03:44;;;;;;;4.10;3.63;;;;;;;26.58;38.48;95020.94;5118520;28;20211;-75
2022/07/21 10:06:11;;;;;;;3.45;3.17;;;;;;;26.62;37.82;95015.97;5117981;28;20192;-75
2022/07/21 10:08:40;;;;;;;3.78;3.30;;;;;;;26.76;36.92;95023.13;5117621;28;20192;-75
2022/07/21 10:11:07;;;;;;;3.35;3.05;;;;;;;26.75;37.24;95011.00;5118545;28;20198;-75
2022/07/21 10:13:34;;;;;;;4.30;3.90;;;;;;;26.76;37.86;95006.13;5117683;28;20498;-75
2022/07/21 10:16:01;;;;;;;3.45;3.15;;;;;;;26.94;38.45;95005.47;5118411;28;20188;-75
2022/07/21 10:18:31;;;;;;;4.90;3.60;;;;;;;27.15;35.16;95015.25;5118251;28;20603;-75
2022/07/21 10:21:03;;;;;;;4.25;3.80;;;;;;;27.25;36.02;95009.16;5118245;28;20199;-75
2022/07/21 10:23:38;;;;;;;3.90;3.60;;;;;;;27.33;35.27;95006.84;5117899;28;20195;-75
2022/07/21 10:26:07;;;;;;;3.53;3.22;;;;;;;27.51;34.88;95003.31;5117321;28;20229;-75
2022/07/21 10:28:34;;;;;;;4.82;3.50;;;;;;;27.49;34.92;95003.78;5118277;28;20198;-76
2022/07/21 10:31:14;;;;;;;3.67;3.28;;;;;;;27.48;35.15;95005.03;5117065;28;20203;-76
2022/07/21 10:33:59;;;;;;;3.63;3.33;;;;;;;27.56;35.91;95000.69;5117367;28;20206;-74
2022/07/21 10:36:46;;;;;;;3.85;3.15;;;;;;;27.77;32.63;94999.03;5117209;28;20202;-74
2022/07/21 10:39:26;;;;;;;3.35;3.10;;;;;;;27.77;33.03;94993.34;5116459;28;20245;-74
2022/07/21 10:41:58;;;;;;;3.88;3.47;;;;;;;27.76;33.22;94988.16;5117609;28;20187;-75
2022/07/21 10:44:46;;;;;;;3.50;3.20;;;;;;;27.75;32.80;94989.44;5117161;28;20207;-75
2022/07/21 10:47:16;;;;;;;4.22;3.65;;;;;;;27.70;35.15;94990.00;5116936;28;20214;-75
2022/07/21 10:49:48;;;;;;;4.75;3.40;;;;;;;27.82;33.42;94974.97;5117688;28;20249;-75
2022/07/21 10:52:52;;;;;;;4.63;3.50;;;;;;;27.71;36.88;94975.38;5117388;28;20198;-75
2022/07/21 10:55:26;;;;;;;3.58;3.28;;;;;;;27.67;36.00;94971.91;5116282;28;20235;-75
2022/07/21 10:58:16;;;;;;;3.63;3.33;;;;;;;27.86;35.33;94972.00;5117141;28;20197;-75
2022/07/21 11:00:51;;;;;;;4.47;3.55;;;;;;;28.00;35.25;94971.41;5117425;28;20215;-75
2022/07/21 11:03:25;;;;;;;3.50;3.20;;;;;;;28.04;33.00;94957.84;5117185;28;20607;-75
2022/07/21 11:06:18;;;;;;;4.30;3.88;;;;;;;28.24;32.81;94958.19;5117414;28;20206;-75
2022/07/21 11:08:46;;;;;;;3.97;3.67;;;;;;;28.38;32.08;94958.84;5116682;28;20194;-75
2022/07/21 11:11:14;;;;;;;5.32;3.65;;;;;;;28.43;33.49;94949.69;5115497;28;20187;-75
2022/07/21 11:14:12;;;;;;;3.67;3.38;;;;;;;28.43;32.88;94953.34;5117297;28;20191;-75
2022/07/21 11:17:02;;;;;;;3.78;3.47;;;;;;;28.48;34.10;94954.75;5117185;28;20215;-75
2022/07/21 11:19:35;;;;;;;3.95;3.58;;;;;;;28.43;34.07;94953.34;5105635;28;20276;-75
2022/07/21 11:22:04;;;;;;;5.80;3.13;;;;;;;28.38;33.56;94962.47;5116407;28;20196;-75
2022/07/21 11:24:31;;;;;;;3.33;3.13;;;;;;;28.33;32.91;94953.78;5117099;28;20188;-75
2022/07/21 11:26:58;;;;;;;3.58;3.28;;;;;;;28.39;33.87;94946.25;5115790;28;20212;-75
2022/07/21 11:29:27;;;;;;;3.40;3.10;;;;;;;28.58;34.48;94947.00;5116447;28;20203;-75
2022/07/21 11:31:55;;;;;;;3.85;3.55;;;;;;;28.64;34.52;94953.63;5116175;28;20202;-74
2022/07/21 11:34:22;;;;;;;3.75;3.45;;;;;;;28.73;31.44;94948.75;5116028;28;20665;-75
2022/07/21 11:36:49;;;;;;;3.78;3.47;;;;;;;28.74;33.27;94950.31;5116041;28;20607;-75
2022/07/21 11:39:19;;;;;;;4.10;3.70;;;;;;;28.85;32.86;94946.22;5117052;28;20204;-75
2022/07/21 11:41:46;;;;;;;4.00;3.70;;;;;;;28.80;33.07;94944.81;5116740;28;20191;-75
2022/07/21 11:44:23;;;;;;;4.85;3.90;;;;;;;28.69;33.88;94942.47;5115764;28;20188;-75